Time;durP1;ratioP1;P1;durP2;ratioP2;P2;SDS_P1;SDS_P2;PMS_P1;PMS_P2;Temp;Humidity;BMP_temperature;BMP_pressure;BME280_temperature;BME280_humidity;BME280_pressure;Samples;Min_cycle;Max_cycle;Signal;HPM_P1;HPM_P2
2023/07/17 00:01:48;;;;;;;;;3.33;2.33;;;;;21.86;97.42;101509.00;5055483;28;63423;-83
2023/07/17 00:04:13;;;;;;;;;3.33;2.00;;;;;21.85;98.08;101510.81;5052898;28;62344;-82
2023/07/17 00:06:39;;;;;;;;;2.00;1.33;;;;;21.82;98.03;101510.88;5057985;28;47294;-83
2023/07/17 00:09:04;;;;;;;;;1.00;1.00;;;;;21.78;98.63;101509.19;5058945;28;45280;-84
2023/07/17 00:11:29;;;;;;;;;3.33;1.33;;;;;21.75;98.58;101506.59;5058484;28;49799;-83
2023/07/17 00:13:55;;;;;;;;;2.33;1.33;;;;;21.69;99.19;101501.38;5057123;28;60370;-83
2023/07/17 00:16:20;;;;;;;;;1.67;1.67;;;;;21.73;99.54;101507.53;5057632;28;58952;-83
2023/07/17 00:18:46;;;;;;;;;2.00;2.00;;;;;21.71;99.79;101511.16;5057298;28;45345;-85
2023/07/17 00:21:11;;;;;;;;;2.00;2.00;;;;;21.71;100.00;101507.59;5057860;28;65148;-84
2023/07/17 00:23:36;;;;;;;;;1.00;1.00;;;;;21.67;99.92;101505.88;5059040;28;45423;-83
2023/07/17 00:26:02;;;;;;;;;5.33;1.00;;;;;21.64;100.00;101500.59;5057114;28;58565;-84
2023/07/17 00:28:27;;;;;;;;;4.00;2.33;;;;;21.62;100.00;101499.72;5058725;28;45434;-83
2023/07/17 00:30:52;;;;;;;;;2.00;1.00;;;;;21.60;100.00;101498.91;5057337;28;57167;-83
2023/07/17 00:33:18;;;;;;;;;2.00;2.00;;;;;21.60;100.00;101512.34;5058437;28;45568;-85
2023/07/17 00:35:43;;;;;;;;;4.00;2.00;;;;;21.57;100.00;101501.66;5057481;28;59377;-83
2023/07/17 00:38:08;;;;;;;;;3.00;2.00;;;;;21.56;100.00;101505.25;5058320;28;45414;-83
2023/07/17 00:40:39;;;;;;;;;3.00;2.00;;;;;21.52;100.00;101503.56;5058156;28;45395;-83
2023/07/17 00:43:09;;;;;;;;;5.33;2.00;;;;;21.50;100.00;101510.78;5051498;28;45556;-82
2023/07/17 00:45:35;;;;;;;;;3.00;1.00;;;;;21.43;100.00;101505.56;5055243;28;46229;-85
2023/07/17 00:48:01;;;;;;;;;2.00;2.00;;;;;21.41;100.00;101515.47;5055833;28;56421;-83
2023/07/17 00:50:27;;;;;;;;;1.33;1.33;;;;;21.36;100.00;101508.41;5054702;28;45462;-83
2023/07/17 00:52:53;;;;;;;;;3.00;2.00;;;;;21.33;100.00;101512.06;5058040;28;45613;-83
2023/07/17 00:55:19;;;;;;;;;2.00;2.00;;;;;21.34;100.00;101519.19;5056858;28;46387;-83
2023/07/17 00:57:44;;;;;;;;;2.00;2.00;;;;;21.33;100.00;101524.59;5057377;28;60259;-83
2023/07/17 01:00:12;;;;;;;;;2.67;2.00;;;;;21.28;100.00;101521.09;5056233;28;61814;-85
2023/07/17 01:02:39;;;;;;;;;1.00;1.00;;;;;21.24;100.00;101525.66;5053972;28;45340;-83
2023/07/17 01:05:05;;;;;;;;;1.33;1.33;;;;;21.22;100.00;101527.50;5057231;28;46325;-85
2023/07/17 01:07:30;;;;;;;;;1.00;1.00;;;;;21.22;100.00;101532.88;5055998;28;45430;-83
2023/07/17 01:09:55;;;;;;;;;3.00;1.33;;;;;21.16;100.00;101525.84;5057107;28;64218;-83
2023/07/17 01:12:21;;;;;;;;;2.00;2.00;;;;;21.16;100.00;101533.00;5057356;28;60785;-83
2023/07/17 01:14:47;;;;;;;;;3.33;2.00;;;;;21.09;100.00;101525.97;5051637;28;67778;-83
2023/07/17 01:17:12;;;;;;;;;2.00;2.00;;;;;21.09;100.00;101532.25;5057243;28;45454;-83
2023/07/17 01:19:37;;;;;;;;;1.67;1.00;;;;;21.05;100.00;101535.94;5057335;28;45391;-83
2023/07/17 01:22:29;;;;;;;;;1.00;1.00;;;;;21.03;100.00;101534.16;5057662;28;52522;-83
2023/07/17 01:24:55;;;;;;;;;1.00;1.00;;;;;20.98;100.00;101530.69;5054847;28;46526;-83
2023/07/17 01:27:20;;;;;;;;;3.00;1.00;;;;;20.97;100.00;101537.00;5057447;28;45374;-85
2023/07/17 01:29:46;;;;;;;;;1.00;1.00;;;;;20.92;100.00;101529.03;5049280;28;45358;-82
2023/07/17 01:32:11;;;;;;;;;0.33;0.33;;;;;20.93;100.00;101534.38;5057424;28;45239;-85
2023/07/17 01:34:38;;;;;;;;;3.00;1.33;;;;;20.90;100.00;101529.06;5055208;28;70009;-84
2023/07/17 01:37:04;;;;;;;;;1.00;1.00;;;;;20.88;100.00;101533.59;5057161;28;45386;-83
2023/07/17 01:39:30;;;;;;;;;2.67;1.00;;;;;20.86;100.00;101535.41;5057320;28;45331;-84
2023/07/17 01:41:55;;;;;;;;;1.00;1.00;;;;;20.81;100.00;101526.56;5056688;28;45465;-83
2023/07/17 01:44:21;;;;;;;;;1.00;1.00;;;;;20.81;100.00;101534.63;5056681;28;69909;-85
2023/07/17 01:46:46;;;;;;;;;1.33;1.33;;;;;20.79;100.00;101528.41;5056494;28;45272;-83
2023/07/17 01:49:12;;;;;;;;;1.00;1.00;;;;;20.74;100.00;101529.41;5057609;28;45335;-83
2023/07/17 01:51:37;;;;;;;;;2.00;2.00;;;;;20.74;100.00;101532.09;5055671;28;45292;-83
2023/07/17 01:54:03;;;;;;;;;1.33;1.33;;;;;20.69;100.00;101529.50;5057127;28;56522;-83
2023/07/17 01:56:28;;;;;;;;;3.00;1.00;;;;;20.69;100.00;101534.88;5056656;28;45470;-83
2023/07/17 01:58:54;;;;;;;;;2.67;1.67;;;;;20.67;100.00;101534.03;5056662;28;45245;-82
2023/07/17 02:01:19;;;;;;;;;1.00;1.00;;;;;20.65;100.00;101534.03;5057032;28;45443;-83
2023/07/17 02:03:44;;;;;;;;;1.00;1.00;;;;;20.62;100.00;101531.44;5050993;28;68239;-83
2023/07/17 02:06:09;;;;;;;;;1.00;1.00;;;;;20.61;100.00;101536.81;5055268;28;51778;-83
2023/07/17 02:08:35;;;;;;;;;0.00;0.00;;;;;20.59;100.00;101534.16;5057285;28;45455;-83
2023/07/17 02:11:00;;;;;;;;;1.67;1.67;;;;;20.54;100.00;101533.34;5051942;28;51138;-83
2023/07/17 02:13:26;;;;;;;;;1.00;0.00;;;;;20.55;100.00;101534.25;5055432;28;48504;-84
2023/07/17 02:15:51;;;;;;;;;3.67;2.00;;;;;20.52;100.00;101543.25;5053072;28;51518;-83
2023/07/17 02:18:17;;;;;;;;;1.00;1.00;;;;;20.48;100.00;101535.28;5055953;28;45353;-82
2023/07/17 02:20:42;;;;;;;;;1.00;1.00;;;;;20.47;100.00;101536.19;5055597;28;45393;-83
2023/07/17 02:23:07;;;;;;;;;1.00;1.00;;;;;20.45;100.00;101538.84;5055232;28;47521;-83
2023/07/17 02:25:33;;;;;;;;;1.00;1.00;;;;;20.41;100.00;101534.47;5056118;28;45678;-83
2023/07/17 02:27:58;;;;;;;;;1.33;1.33;;;;;20.44;100.00;101537.09;5055956;28;62287;-83
2023/07/17 02:30:23;;;;;;;;;2.00;2.00;;;;;20.42;100.00;101539.81;5046144;28;45502;-83
2023/07/17 02:32:49;;;;;;;;;2.00;2.00;;;;;20.44;100.00;101539.78;5055307;28;69405;-83
2023/07/17 02:35:14;;;;;;;;;4.33;1.33;;;;;20.44;100.00;101545.13;5054494;28;55270;-83
2023/07/17 02:37:40;;;;;;;;;1.00;1.00;;;;;20.45;100.00;101540.66;5055719;28;57712;-83
2023/07/17 02:40:10;;;;;;;;;2.33;1.00;;;;;20.44;100.00;101547.81;5056686;28;45491;-82
2023/07/17 02:42:35;;;;;;;;;2.33;1.00;;;;;20.43;100.00;101540.69;5054909;28;46476;-83
2023/07/17 02:45:01;;;;;;;;;2.00;2.00;;;;;20.39;100.00;101545.22;5071838;28;45406;-83
2023/07/17 02:47:26;;;;;;;;;1.33;1.00;;;;;20.37;100.00;101538.13;5056580;28;45364;-82
2023/07/17 02:49:51;;;;;;;;;3.00;1.00;;;;;20.36;100.00;101544.41;5055762;28;60280;-83
2023/07/17 02:52:17;;;;;;;;;1.00;1.00;;;;;20.33;100.00;101561.44;5047552;28;47932;-82
2023/07/17 02:54:43;;;;;;;;;6.00;1.00;;;;;20.31;100.00;101548.97;5051812;28;65642;-82
2023/07/17 02:57:10;;;;;;;;;4.00;2.00;;;;;20.26;100.00;101548.16;5054902;28;45431;-82
2023/07/17 02:59:36;;;;;;;;;2.67;1.00;;;;;20.23;100.00;101549.09;5055102;28;45427;-82
2023/07/17 03:02:01;;;;;;;;;0.67;0.67;;;;;20.21;100.00;101556.28;5054325;28;47485;-82
2023/07/17 03:04:27;;;;;;;;;1.67;0.67;;;;;20.22;100.00;101560.72;5054563;28;45481;-83
2023/07/17 03:06:52;;;;;;;;;2.67;1.67;;;;;20.19;100.00;101555.44;5055555;28;57153;-83
2023/07/17 03:09:17;;;;;;;;;1.67;1.67;;;;;20.18;100.00;101558.13;5056425;28;45707;-82
2023/07/17 03:11:43;;;;;;;;;1.67;1.67;;;;;20.13;100.00;101552.84;5058998;28;63486;-82
2023/07/17 03:14:08;;;;;;;;;0.67;0.67;;;;;20.12;100.00;101556.44;5057193;28;61178;-83
2023/07/17 03:16:33;;;;;;;;;1.00;1.00;;;;;20.08;100.00;101552.03;5053057;28;58824;-82
2023/07/17 03:18:59;;;;;;;;;2.67;2.00;;;;;20.08;100.00;101558.31;5057924;28;61507;-83
2023/07/17 03:21:24;;;;;;;;;2.00;2.00;;;;;20.06;100.00;101561.91;5058890;28;67178;-83
2023/07/17 03:23:49;;;;;;;;;1.00;1.00;;;;;20.05;100.00;101557.47;5056944;28;67307;-82
2023/07/17 03:26:15;;;;;;;;;1.00;1.00;;;;;20.05;100.00;101555.66;5059224;28;57238;-83
2023/07/17 03:28:40;;;;;;;;;0.67;0.67;;;;;20.10;100.00;101561.84;5047223;28;60341;-83
2023/07/17 03:31:07;;;;;;;;;1.00;1.00;;;;;20.10;100.00;101560.94;5056972;28;68008;-85
2023/07/17 03:33:33;;;;;;;;;1.00;1.00;;;;;20.12;100.00;101569.84;5059494;28;45325;-84
2023/07/17 03:35:59;;;;;;;;;1.00;1.00;;;;;20.12;100.00;101572.53;5059308;28;45228;-82
2023/07/17 03:38:24;;;;;;;;;1.00;1.00;;;;;20.16;100.00;101579.63;5059466;28;45465;-83
2023/07/17 03:40:50;;;;;;;;;0.67;0.67;;;;;20.15;100.00;101573.38;5058773;28;47200;-82
2023/07/17 03:43:15;;;;;;;;;2.67;1.00;;;;;20.18;100.00;101579.56;5058261;28;65636;-82
2023/07/17 03:45:40;;;;;;;;;0.67;0.67;;;;;20.18;100.00;101579.56;5057928;28;45252;-82
2023/07/17 03:48:06;;;;;;;;;2.67;1.67;;;;;20.19;100.00;101582.25;5058621;28;58808;-83
2023/07/17 03:50:31;;;;;;;;;1.33;1.33;;;;;20.21;100.00;101590.28;5028407;28;48290;-83
2023/07/17 03:52:57;;;;;;;;;0.00;0.00;;;;;20.19;100.00;101582.25;5053716;28;45522;-82
2023/07/17 03:55:22;;;;;;;;;1.00;1.00;;;;;20.21;100.00;101585.78;5056159;28;65334;-82
2023/07/17 03:57:47;;;;;;;;;0.00;0.00;;;;;20.20;100.00;101588.50;5058588;28;56207;-85
2023/07/17 04:00:13;;;;;;;;;1.33;1.00;;;;;20.19;100.00;101582.25;5057368;28;47110;-82
2023/07/17 04:02:42;;;;;;;;;0.00;0.00;;;;;20.20;100.00;101588.50;5052133;28;45470;-83
2023/07/17 04:05:07;;;;;;;;;3.67;0.67;;;;;20.17;100.00;101584.06;5050659;28;45325;-82
2023/07/17 04:07:33;;;;;;;;;2.67;0.00;;;;;20.18;100.00;101601.03;5058531;28;45212;-84
2023/07/17 04:09:58;;;;;;;;;1.33;1.00;;;;;20.13;100.00;101590.38;5058641;28;45891;-82
2023/07/17 04:12:24;;;;;;;;;1.33;1.33;;;;;20.14;100.00;101594.84;5056436;28;66384;-85
2023/07/17 04:14:49;;;;;;;;;1.00;0.67;;;;;20.13;100.00;101598.41;5058456;28;45281;-82
2023/07/17 04:17:15;;;;;;;;;0.67;0.67;;;;;20.11;100.00;101592.22;5058720;28;45454;-83
2023/07/17 04:19:40;;;;;;;;;0.00;0.00;;;;;20.10;100.00;101598.50;5040688;28;45279;-83
2023/07/17 04:22:06;;;;;;;;;0.33;0.33;;;;;20.09;100.00;101602.97;5056221;28;61849;-83
2023/07/17 04:24:31;;;;;;;;;1.00;1.00;;;;;20.04;100.00;101599.47;5057086;28;61886;-84
2023/07/17 04:26:56;;;;;;;;;0.00;0.00;;;;;20.03;100.00;101602.19;5057823;28;58697;-82
2023/07/17 04:29:22;;;;;;;;;0.00;0.00;;;;;19.99;100.00;101605.81;5058175;28;45410;-82
2023/07/17 04:31:48;;;;;;;;;2.33;1.00;;;;;19.99;100.00;101609.38;5058321;28;45485;-83
2023/07/17 04:34:13;;;;;;;;;2.00;1.00;;;;;19.97;100.00;101607.63;5057919;28;45265;-84
2023/07/17 04:36:39;;;;;;;;;0.00;0.00;;;;;19.94;100.00;101621.09;5058661;28;45684;-84
2023/07/17 04:39:04;;;;;;;;;0.00;0.00;;;;;19.88;100.00;101611.34;5058267;28;46535;-83
2023/07/17 04:41:30;;;;;;;;;2.00;0.33;;;;;19.87;100.00;101607.78;5040041;28;46730;-83
2023/07/17 04:43:55;;;;;;;;;0.67;0.67;;;;;19.89;100.00;101619.34;5058466;28;45298;-82
2023/07/17 04:46:21;;;;;;;;;2.67;0.00;;;;;19.87;100.00;101618.50;5057948;28;45453;-82
2023/07/17 04:48:46;;;;;;;;;0.33;0.33;;;;;19.85;100.00;101614.94;5058244;28;48026;-83
2023/07/17 04:51:11;;;;;;;;;2.67;0.33;;;;;19.85;100.00;101622.09;5057930;28;45505;-83
2023/07/17 04:53:37;;;;;;;;;0.33;0.33;;;;;19.84;100.00;101623.91;5056016;28;59438;-82
2023/07/17 04:56:02;;;;;;;;;2.67;0.00;;;;;19.79;100.00;101619.50;5057335;28;45375;-82
2023/07/17 04:58:28;;;;;;;;;1.67;0.67;;;;;19.81;100.00;101625.72;5039670;28;46467;-82
2023/07/17 05:01:00;;;;;;;;;2.67;0.00;;;;;19.78;100.00;101621.31;5048232;28;46070;-83
2023/07/17 05:03:27;;;;;;;;;0.33;0.33;;;;;19.78;100.00;101629.34;5056715;28;45407;-82
2023/07/17 05:05:53;;;;;;;;;1.00;0.67;;;;;19.80;100.00;101629.31;5057799;28;45439;-83
2023/07/17 05:08:19;;;;;;;;;2.67;0.00;;;;;19.73;100.00;101623.16;5057690;28;46524;-83
2023/07/17 05:10:52;;;;;;;;;1.00;0.00;;;;;19.80;100.00;101637.34;5039831;28;46044;-83
2023/07/17 05:13:18;;;;;;;;;0.67;0.67;;;;;19.79;100.00;101630.22;5054325;28;45374;-86
2023/07/17 05:15:43;;;;;;;;;0.67;0.00;;;;;19.80;100.00;101632.88;5146008;22;46021;-83
2023/07/17 05:18:09;;;;;;;;;0.33;0.33;;;;;19.84;100.00;101642.66;5036393;28;68530;-83
2023/07/17 05:20:34;;;;;;;;;0.00;0.00;;;;;19.84;100.00;101633.72;5034402;28;45461;-84
2023/07/17 05:22:59;;;;;;;;;0.33;0.33;;;;;19.87;100.00;101639.06;5028607;28;59621;-84
2023/07/17 05:25:25;;;;;;;;;2.00;1.00;;;;;19.86;100.00;101638.16;5017802;28;45393;-84
2023/07/17 05:27:51;;;;;;;;;0.67;0.67;;;;;19.92;100.00;101641.66;5037682;28;47232;-83
2023/07/17 05:30:16;;;;;;;;;1.67;0.33;;;;;19.94;100.00;101642.53;5024168;28;45637;-83
2023/07/17 05:32:42;;;;;;;;;3.33;0.00;;;;;19.93;100.00;101641.66;5035835;28;63385;-86
2023/07/17 05:35:07;;;;;;;;;1.00;1.00;;;;;19.97;100.00;101651.38;5029460;28;53722;-87
2023/07/17 05:37:33;;;;;;;;;0.00;0.00;;;;;20.00;100.00;101650.47;5030962;28;47641;-85
2023/07/17 05:39:58;;;;;;;;;1.67;1.00;;;;;20.00;100.00;101654.03;5029958;28;45461;-83
2023/07/17 05:42:24;;;;;;;;;0.00;0.00;;;;;20.03;100.00;101650.44;5036867;28;52722;-84
2023/07/17 05:44:49;;;;;;;;;0.67;0.67;;;;;20.05;100.00;101644.13;5028673;28;45365;-85
2023/07/17 05:47:14;;;;;;;;;1.67;1.00;;;;;20.07;100.00;101653.03;5013340;28;52260;-84
2023/07/17 05:49:40;;;;;;;;;1.00;0.67;;;;;20.11;100.00;101656.56;5023646;28;65459;-84
2023/07/17 05:52:05;;;;;;;;;2.67;1.00;;;;;20.11;100.00;101657.44;5013414;28;45466;-84
2023/07/17 05:54:30;;;;;;;;;0.67;0.67;;;;;20.11;100.00;101661.91;5031746;28;45549;-84
2023/07/17 05:56:56;;;;;;;;;0.00;0.00;;;;;20.12;100.00;101661.88;5031115;28;47260;-84
2023/07/17 05:59:21;;;;;;;;;2.00;1.00;;;;;20.10;100.00;101660.16;5035886;28;45420;-84
2023/07/17 06:01:46;;;;;;;;;1.00;1.00;;;;;20.11;100.00;101660.13;5026051;28;45418;-84
2023/07/17 06:04:12;;;;;;;;;1.67;0.00;;;;;20.15;100.00;101664.53;5031976;28;55332;-84
2023/07/17 06:06:37;;;;;;;;;1.00;1.00;;;;;20.15;100.00;101669.91;5030736;28;45400;-84
2023/07/17 06:09:03;;;;;;;;;1.00;1.00;;;;;20.16;100.00;101670.78;5031378;28;66339;-84
2023/07/17 06:11:28;;;;;;;;;4.33;1.00;;;;;20.18;100.00;101671.63;5035812;28;45316;-84
2023/07/17 06:13:53;;;;;;;;;1.00;1.00;;;;;20.22;100.00;101684.09;5025645;28;46981;-85
2023/07/17 06:16:19;;;;;;;;;0.00;0.00;;;;;20.23;100.00;101687.66;5034567;28;61763;-84
2023/07/17 06:18:44;;;;;;;;;0.67;0.67;;;;;20.23;100.00;101693.91;5006121;28;58013;-84
2023/07/17 06:21:10;;;;;;;;;1.00;1.00;;;;;20.23;100.00;101693.03;5037269;28;45923;-85
2023/07/17 06:23:35;;;;;;;;;0.00;0.00;;;;;20.22;100.00;101685.91;5037225;28;45264;-83
2023/07/17 06:26:00;;;;;;;;;0.33;0.00;;;;;20.26;100.00;101695.66;5030802;28;62094;-84
2023/07/17 06:28:27;;;;;;;;;1.67;0.67;;;;;20.23;100.00;101696.59;5033365;28;54615;-87
2023/07/17 06:30:53;;;;;;;;;2.00;0.33;;;;;20.22;100.00;101694.81;5030137;28;45458;-85
2023/07/17 06:33:19;;;;;;;;;0.33;0.33;;;;;20.25;100.00;101701.94;5010624;28;45667;-84
2023/07/17 06:35:44;;;;;;;;;1.67;0.00;;;;;20.23;100.00;101688.53;5023275;28;45543;-84
2023/07/17 06:38:10;;;;;;;;;0.00;0.00;;;;;20.26;100.00;101691.19;5036237;28;45223;-84
2023/07/17 06:40:37;;;;;;;;;2.33;0.67;;;;;20.27;100.00;101692.97;5034786;28;62465;-84
2023/07/17 06:43:02;;;;;;;;;2.33;1.00;;;;;20.27;100.00;101695.63;5016081;28;45854;-83
2023/07/17 06:45:28;;;;;;;;;2.00;0.00;;;;;20.32;100.00;101690.22;5016589;28;69287;-84
2023/07/17 06:47:53;;;;;;;;;2.00;2.00;;;;;20.33;100.00;101687.50;5030499;28;68061;-84
2023/07/17 06:50:18;;;;;;;;;2.00;1.00;;;;;20.34;100.00;101697.31;5032018;28;45252;-84
2023/07/17 06:52:44;;;;;;;;;2.00;0.33;;;;;20.37;100.00;101697.28;5030778;28;45416;-84
2023/07/17 06:55:09;;;;;;;;;2.00;1.00;;;;;20.41;100.00;101707.06;5031743;28;47409;-84
2023/07/17 06:57:34;;;;;;;;;0.00;0.00;;;;;20.41;100.00;101707.06;5028310;28;45314;-86
2023/07/17 07:00:00;;;;;;;;;1.00;1.00;;;;;20.42;100.00;101710.63;5036337;28;45565;-85
2023/07/17 07:02:25;;;;;;;;;1.33;1.33;;;;;20.45;100.00;101712.34;5031053;28;45404;-84
2023/07/17 07:04:50;;;;;;;;;1.00;1.00;;;;;20.49;100.00;101709.63;5030578;28;45853;-84
2023/07/17 07:07:16;;;;;;;;;0.67;0.00;;;;;20.52;100.00;101704.22;5023621;28;45196;-83
2023/07/17 07:09:41;;;;;;;;;1.00;1.00;;;;;20.54;100.00;101713.13;5035211;28;63113;-84
2023/07/17 07:12:07;;;;;;;;;1.33;1.33;;;;;20.58;100.00;101714.84;5023300;28;63333;-83
2023/07/17 07:14:32;;;;;;;;;0.33;0.33;;;;;20.59;100.00;101715.75;5021130;28;45915;-83
2023/07/17 07:16:58;;;;;;;;;1.67;1.67;;;;;20.61;100.00;101713.91;5027390;28;61018;-84
2023/07/17 07:19:23;;;;;;;;;1.00;1.00;;;;;20.65;100.00;101715.63;5028072;28;45450;-86
2023/07/17 07:21:49;;;;;;;;;1.00;1.00;;;;;20.68;100.00;101712.91;5027062;28;45203;-83
2023/07/17 07:24:14;;;;;;;;;2.00;0.67;;;;;20.74;100.00;101722.66;5020247;28;47534;-86
2023/07/17 07:26:39;;;;;;;;;2.33;1.00;;;;;20.75;100.00;101705.63;5033925;28;66601;-85
2023/07/17 07:29:05;;;;;;;;;0.00;0.00;;;;;20.74;100.00;101712.81;5030110;28;54802;-83
2023/07/17 07:31:30;;;;;;;;;0.00;0.00;;;;;20.78;100.00;101710.97;5026840;28;55089;-87
2023/07/17 07:33:55;;;;;;;;;1.67;1.00;;;;;20.84;100.00;101722.47;5016942;28;47618;-83
2023/07/17 07:36:22;;;;;;;;;3.00;1.00;;;;;20.88;100.00;101721.50;5024566;28;62820;-84
2023/07/17 07:38:48;;;;;;;;;1.00;1.00;;;;;20.92;100.00;101727.69;5034721;28;45218;-83
2023/07/17 07:41:13;;;;;;;;;1.00;1.00;;;;;20.94;100.00;101717.84;5034326;28;45403;-84
2023/07/17 07:43:39;;;;;;;;;1.00;1.00;;;;;20.95;100.00;101726.78;5032492;28;46478;-84
2023/07/17 07:46:04;;;;;;;;;3.67;1.00;;;;;20.93;100.00;101719.63;5022440;28;57520;-84
2023/07/17 07:48:31;;;;;;;;;1.00;1.00;;;;;20.96;100.00;101728.53;5035576;28;45406;-84
2023/07/17 07:50:56;;;;;;;;;1.33;1.33;;;;;20.99;100.00;101728.50;5014613;28;45294;-84
2023/07/17 07:53:22;;;;;;;;;2.00;1.00;;;;;21.03;100.00;101725.69;5019894;28;46694;-84
2023/07/17 07:55:47;;;;;;;;;0.33;0.33;;;;;21.09;100.00;101733.69;5027953;28;60774;-83
2023/07/17 07:58:12;;;;;;;;;1.00;1.00;;;;;21.14;99.58;101730.88;5033732;28;61399;-84
2023/07/17 08:00:38;;;;;;;;;1.00;1.00;;;;;21.13;99.27;101724.63;5037132;28;46082;-84
2023/07/17 08:03:04;;;;;;;;;4.00;1.67;;;;;21.19;99.17;101729.00;5034512;28;47503;-86
2023/07/17 08:05:29;;;;;;;;;1.00;1.00;;;;;21.25;98.16;101736.06;5028884;28;64825;-84
2023/07/17 08:07:54;;;;;;;;;0.00;0.00;;;;;21.30;98.20;101734.19;5036938;28;64263;-84
2023/07/17 08:10:20;;;;;;;;;1.00;1.00;;;;;21.35;97.95;101738.56;5038446;28;51931;-85
2023/07/17 08:12:45;;;;;;;;;1.00;1.00;;;;;21.44;97.39;101733.03;5024599;28;50112;-86
2023/07/17 08:15:11;;;;;;;;;1.00;1.00;;;;;21.51;96.84;101743.66;5027313;28;63003;-84
2023/07/17 08:17:36;;;;;;;;;1.00;1.00;;;;;21.55;96.50;101743.56;5019802;28;45651;-84
2023/07/17 08:20:03;;;;;;;;;0.33;0.33;;;;;21.64;96.28;101742.50;5030864;28;45349;-84
2023/07/17 08:22:29;;;;;;;;;2.00;2.00;;;;;21.69;95.31;101740.59;5034381;28;45657;-83
2023/07/17 08:24:54;;;;;;;;;1.00;1.00;;;;;21.78;95.41;101750.25;5026713;28;51765;-84
2023/07/17 08:27:19;;;;;;;;;2.33;1.67;;;;;21.84;95.04;101747.44;5034901;28;45358;-83
2023/07/17 08:29:45;;;;;;;;;2.00;1.00;;;;;21.91;94.11;101747.28;5038489;28;45287;-83
2023/07/17 08:32:11;;;;;;;;;2.00;2.00;;;;;21.95;94.22;101745.44;5032348;28;55056;-86
2023/07/17 08:34:36;;;;;;;;;2.00;1.00;;;;;22.01;93.44;101752.50;5031155;28;45589;-82
2023/07/17 08:37:01;;;;;;;;;0.67;0.67;;;;;22.07;93.16;101749.66;5034306;28;45391;-84
2023/07/17 08:39:27;;;;;;;;;3.00;1.33;;;;;22.12;92.62;101748.66;5035313;28;46661;-83
2023/07/17 08:41:52;;;;;;;;;3.00;0.33;;;;;22.19;92.53;101744.91;5024129;28;48154;-83
2023/07/17 08:44:18;;;;;;;;;2.00;2.00;;;;;22.27;91.99;101739.38;5035786;28;64410;-83
2023/07/17 08:46:44;;;;;;;;;1.00;1.00;;;;;22.33;91.66;101744.59;5031553;28;60410;-84
2023/07/17 08:49:11;;;;;;;;;4.00;1.00;;;;;22.37;90.88;101740.94;5030082;28;45512;-84
2023/07/17 08:51:36;;;;;;;;;1.00;1.00;;;;;22.40;90.57;101743.53;5022745;28;46295;-83
2023/07/17 08:54:03;;;;;;;;;2.67;1.00;;;;;22.48;89.06;101746.94;5036235;28;67354;-83
2023/07/17 08:56:29;;;;;;;;;1.00;1.00;;;;;22.54;88.18;101743.22;5032744;28;45365;-83
2023/07/17 08:58:54;;;;;;;;;2.67;1.67;;;;;22.60;87.77;101742.19;5034897;28;45332;-84
2023/07/17 09:01:20;;;;;;;;;2.67;1.33;;;;;22.69;86.80;101747.31;5027982;28;47438;-84
2023/07/17 09:03:46;;;;;;;;;4.33;1.67;;;;;22.72;86.60;101744.56;5017980;28;67261;-84
2023/07/17 09:06:13;;;;;;;;;3.00;1.00;;;;;22.78;86.12;101747.09;5025924;28;45438;-83
2023/07/17 09:08:38;;;;;;;;;1.33;1.00;;;;;22.88;84.88;101739.72;5022379;28;45435;-84
2023/07/17 09:11:07;;;;;;;;;1.00;1.00;;;;;23.02;85.48;101737.56;5024752;28;67423;-84
2023/07/17 09:13:37;;;;;;;;;2.00;2.00;;;;;23.16;85.72;101746.13;5028553;28;45443;-84
2023/07/17 09:16:20;;;;;;;;;0.33;0.00;;;;;23.32;83.90;101745.72;5036230;28;45232;-84
2023/07/17 09:18:46;;;;;;;;;2.00;1.00;;;;;23.40;83.87;101746.41;5026531;28;45325;-84
2023/07/17 09:21:17;;;;;;;;;2.33;0.67;;;;;23.48;82.31;101745.25;5024486;28;46623;-83
2023/07/17 09:23:47;;;;;;;;;1.33;1.33;;;;;23.53;82.47;101743.31;5035770;28;45393;-83
2023/07/17 09:26:21;;;;;;;;;1.00;1.00;;;;;23.61;82.11;101745.81;5024422;28;45500;-84
2023/07/17 09:28:50;;;;;;;;;1.00;1.00;;;;;23.68;80.63;101762.72;5017431;28;45499;-82
2023/07/17 09:31:28;;;;;;;;;1.00;1.00;;;;;23.66;79.27;101761.91;5037001;28;47414;-84
2023/07/17 09:33:55;;;;;;;;;2.00;1.00;;;;;23.63;79.43;101753.88;5027290;28;45385;-83
2023/07/17 09:36:21;;;;;;;;;1.00;1.00;;;;;23.62;79.63;101752.09;5029757;28;45259;-83
2023/07/17 09:38:55;;;;;;;;;1.00;1.00;;;;;23.66;78.61;101768.16;5036408;28;45516;-83
2023/07/17 09:41:25;;;;;;;;;2.33;1.00;;;;;23.68;78.93;101755.50;5019236;28;48092;-83
2023/07/17 09:44:05;;;;;;;;;2.00;0.67;;;;;23.77;79.03;101762.47;5034816;28;45295;-86
2023/07/17 09:46:35;;;;;;;;;2.00;1.00;;;;;23.86;78.69;101761.28;5035860;28;45555;-85
2023/07/17 09:49:03;;;;;;;;;1.00;1.00;;;;;23.92;78.06;101751.22;5030052;28;45507;-83
2023/07/17 09:51:29;;;;;;;;;1.00;1.00;;;;;23.95;76.99;101755.63;5007167;28;47718;-82
2023/07/17 09:53:55;;;;;;;;;1.00;1.00;;;;;23.94;77.16;101759.28;5033012;28;45464;-84
2023/07/17 09:56:23;;;;;;;;;1.00;1.00;;;;;24.02;76.67;101759.91;5036209;28;45296;-82
2023/07/17 09:58:51;;;;;;;;;1.67;0.33;;;;;24.05;76.48;101760.72;5032813;28;45467;-87
2023/07/17 10:01:18;;;;;;;;;1.00;1.00;;;;;24.01;75.01;101760.84;5027846;28;45837;-83
2023/07/17 10:03:48;;;;;;;;;0.00;0.00;;;;;23.98;74.62;101744.75;5029398;28;45508;-84
2023/07/17 10:06:16;;;;;;;;;1.67;0.00;;;;;23.92;75.16;101753.94;5018789;28;45460;-85
2023/07/17 10:08:46;;;;;;;;;0.00;0.00;;;;;23.87;75.40;101755.00;5035829;28;45349;-82
2023/07/17 10:11:13;;;;;;;;;1.00;1.00;;;;;23.83;74.83;101764.09;5032020;28;47805;-87
2023/07/17 10:13:39;;;;;;;;;2.00;1.00;;;;;23.82;74.87;101756.94;5033925;28;46254;-83
2023/07/17 10:16:04;;;;;;;;;1.00;1.00;;;;;23.87;74.81;101752.28;5018643;28;62667;-83
2023/07/17 10:18:30;;;;;;;;;0.67;0.67;;;;;23.85;74.53;101757.72;5017814;28;55473;-86
2023/07/17 10:20:56;;;;;;;;;1.00;1.00;;;;;23.86;74.13;101746.00;5022410;28;69075;-84
2023/07/17 10:23:26;;;;;;;;;1.00;1.00;;;;;23.93;74.30;101744.00;5036025;28;45358;-85
2023/07/17 10:26:02;;;;;;;;;2.67;1.00;;;;;23.96;73.96;101749.31;5036221;28;45245;-83
2023/07/17 10:28:31;;;;;;;;;1.00;1.00;;;;;24.01;74.35;101750.94;5020811;28;45210;-84
2023/07/17 10:31:02;;;;;;;;;1.00;1.00;;;;;24.01;73.60;101748.22;5031310;28;46614;-83
2023/07/17 10:33:35;;;;;;;;;2.67;1.00;;;;;24.02;73.10;101763.50;5036453;28;45217;-83
2023/07/17 10:36:00;;;;;;;;;2.00;0.67;;;;;24.09;73.49;101761.50;5033357;28;45233;-86
2023/07/17 10:38:28;;;;;;;;;3.33;0.00;;;;;24.18;71.63;101746.81;5024133;28;45483;-84
2023/07/17 10:41:10;;;;;;;;;4.33;0.33;;;;;24.31;72.18;101741.00;5036140;28;46584;-83
2023/07/17 10:43:36;;;;;;;;;1.00;1.00;;;;;24.49;72.17;101744.97;5034531;28;45443;-83
2023/07/17 10:46:07;;;;;;;;;1.67;1.00;;;;;24.65;71.74;101755.25;5036091;28;45212;-83
2023/07/17 10:48:33;;;;;;;;;1.33;1.33;;;;;24.73;69.41;101755.91;5023896;28;45358;-83
2023/07/17 10:50:59;;;;;;;;;2.67;1.00;;;;;24.75;69.36;101752.22;5030443;28;45433;-83
2023/07/17 10:53:24;;;;;;;;;1.00;1.00;;;;;24.82;67.60;101760.97;5031489;28;45380;-83
2023/07/17 10:55:50;;;;;;;;;0.33;0.33;;;;;24.92;68.38;101753.47;5026966;28;45347;-83
2023/07/17 10:58:18;;;;;;;;;0.00;0.00;;;;;24.91;67.48;101754.41;5032273;28;45233;-84
2023/07/17 11:00:44;;;;;;;;;1.00;1.00;;;;;24.87;67.57;101759.00;5028160;28;48828;-83
2023/07/17 11:03:13;;;;;;;;;0.00;0.00;;;;;24.81;66.95;101757.41;5035111;28;45296;-83
2023/07/17 11:05:43;;;;;;;;;1.00;1.00;;;;;24.90;66.84;101758.91;5034558;28;45364;-83
2023/07/17 11:08:09;;;;;;;;;0.00;0.00;;;;;24.97;65.93;101748.78;5029191;28;45216;-83
2023/07/17 11:10:39;;;;;;;;;2.00;1.00;;;;;25.06;65.45;101757.50;5034917;28;47499;-84
2023/07/17 11:13:04;;;;;;;;;0.33;0.00;;;;;25.16;64.17;101754.47;5026230;28;45510;-86
2023/07/17 11:15:34;;;;;;;;;0.00;0.00;;;;;25.26;64.14;101745.09;5029340;28;46623;-83